Colfax, Washington
Current Conditions -  °F | °C
As of 12:53 PM on Tuesday 27 Jan 2015 (Local Time) from KPUW Reporting Station
Clear Clear  
Wind Chill: 51°   Ceiling: Unl
Heat Index: 51°   Visibility: 10mi
Dew Point: 40°   Wind: 10mph
Humidity: 66%   Direction: 150°SSE
Pressure: 30"   Gusts: NA
Location:  46.88°N, 117.36°W
Report Text: KPUW 272053Z AUTO 15009KT 10SM CLR 11/04 A3000 RMK AO2 SLP167 T01060044 58009
Loading
Personal Weather Stations






























Interactive Weather Map New forecast layout! Learn more

10-Day Weather Forecast

Advertisements
Track Severe Weather on mobile